Time;durP1;ratioP1;P1;durP2;ratioP2;P2;SDS_P1;SDS_P2;PMS_P1;PMS_P2;Temp;Humidity;BMP_temperature;BMP_pressure;BME280_temperature;BME280_humidity;BME280_pressure;Samples;Min_cycle;Max_cycle;Signal;HPM_P1;HPM_P2
2021/01/19 00:01:38;;;;;;;83.38;49.28;;;13.20;2048.00;;;;;;4840738;29;20030;-75
2021/01/19 00:04:04;;;;;;;74.18;42.97;;;13.10;2022.40;;;;;;4841371;29;20077;-75
2021/01/19 00:06:30;;;;;;;75.53;44.63;;;13.20;2022.40;;;;;;4841454;29;20050;-76
2021/01/19 00:08:56;;;;;;;75.38;44.55;;;13.10;2022.40;;;;;;4839852;29;20828;-76
2021/01/19 00:11:22;;;;;;;78.45;46.92;;;13.10;2048.00;;;;;;4841817;29;20034;-76
2021/01/19 00:13:47;;;;;;;84.88;49.58;;;13.10;2048.00;;;;;;4839917;29;20487;-76
2021/01/19 00:16:13;;;;;;;74.80;43.35;;;13.10;2048.00;;;;;;4838034;29;20045;-76
2021/01/19 00:18:39;;;;;;;72.00;41.67;;;13.10;2048.00;;;;;;4838902;29;20063;-76
2021/01/19 00:21:05;;;;;;;88.10;49.38;;;13.00;2073.60;;;;;;4841399;29;20390;-76
2021/01/19 00:23:30;;;;;;;75.00;46.53;;;13.00;2073.60;;;;;;4840481;29;20113;-77
2021/01/19 00:25:56;;;;;;;85.07;47.17;;;13.10;2073.60;;;;;;4838645;29;20470;-76
2021/01/19 00:28:22;;;;;;;80.70;44.65;;;13.10;2073.60;;;;;;4841171;29;20030;-76
2021/01/19 00:30:47;;;;;;;80.00;47.78;;;13.10;2073.60;;;;;;4839756;29;20042;-76
2021/01/19 00:33:13;;;;;;;70.30;43.95;;;13.00;2073.60;;;;;;4841013;29;20038;-76
2021/01/19 00:35:42;;;;;;;82.40;46.15;;;13.00;2073.60;;;;;;4840900;29;20466;-76
2021/01/19 00:38:08;;;;;;;86.15;50.83;;;13.00;2048.00;;;;;;4840055;29;20034;-76
2021/01/19 00:40:35;;;;;;;81.65;46.38;;;13.00;2048.00;;;;;;4840375;29;20026;-75
2021/01/19 00:43:01;;;;;;;74.13;41.88;;;13.10;2048.00;;;;;;4841179;29;20052;-76
2021/01/19 00:45:27;;;;;;;69.03;40.40;;;13.10;2048.00;;;;;;4840650;29;20042;-76
2021/01/19 00:47:53;;;;;;;71.15;42.17;;;13.10;2022.40;;;;;;4840360;29;20034;-79
2021/01/19 00:50:19;;;;;;;86.55;46.50;;;13.00;2048.00;;;;;;4840352;29;20030;-78
2021/01/19 00:52:45;;;;;;;74.40;40.13;;;13.00;2048.00;;;;;;4839486;29;20037;-78
2021/01/19 00:55:12;;;;;;;96.90;50.42;;;13.00;2048.00;;;;;;4840408;29;20042;-76
2021/01/19 00:57:38;;;;;;;59.88;39.17;;;13.00;2048.00;;;;;;4840549;29;20030;-76
2021/01/19 01:00:09;;;;;;;51.72;33.13;;;13.00;2048.00;;;;;;4839948;29;20038;-76
2021/01/19 01:02:36;;;;;;;59.22;33.88;;;13.00;2048.00;;;;;;4839490;29;20557;-76
2021/01/19 01:05:07;;;;;;;48.05;29.02;;;12.90;2048.00;;;;;;4841102;29;20092;-76
2021/01/19 01:07:37;;;;;;;51.00;29.35;;;12.90;2048.00;;;;;;4839152;29;20038;-77
2021/01/19 01:10:06;;;;;;;47.90;28.25;;;12.90;2048.00;;;;;;4840649;29;20470;-76
2021/01/19 01:12:31;;;;;;;44.63;27.58;;;0.10;2022.40;;;;;;4841178;29;20034;-77
2021/01/19 01:14:58;;;;;;;40.13;25.42;;;0.00;1996.80;;;;;;4839137;29;20034;-76
2021/01/19 01:17:24;;;;;;;40.90;26.45;;;0.00;1996.80;;;;;;4839948;29;20030;-76
2021/01/19 01:19:49;;;;;;;39.15;24.13;;;0.10;1996.80;;;;;;4841001;29;20037;-76
2021/01/19 01:22:15;;;;;;;37.22;23.92;;;0.10;1971.20;;;;;;4841355;29;20034;-76
2021/01/19 01:24:41;;;;;;;38.60;24.80;;;0.10;1971.20;;;;;;4836632;29;20029;-77
2021/01/19 01:27:06;;;;;;;35.17;23.75;;;0.20;1971.20;;;;;;4839240;29;20049;-76
2021/01/19 01:29:32;;;;;;;37.40;22.35;;;0.20;1971.20;;;;;;4836988;29;20418;-76
2021/01/19 01:31:58;;;;;;;33.92;21.38;;;0.20;1945.60;;;;;;4840079;29;20253;-76
2021/01/19 01:34:24;;;;;;;35.10;22.92;;;0.20;1971.20;;;;;;4839826;29;20071;-76
2021/01/19 01:36:50;;;;;;;36.88;23.25;;;0.20;1945.60;;;;;;4842727;29;20498;-77
2021/01/19 01:39:15;;;;;;;34.75;23.00;;;0.20;1945.60;;;;;;4843755;29;20034;-76
2021/01/19 01:41:41;;;;;;;36.70;24.90;;;0.20;1945.60;;;;;;4842594;29;20655;-77
2021/01/19 01:44:07;;;;;;;33.08;21.58;;;0.20;1945.60;;;;;;4844184;29;20092;-76
2021/01/19 01:46:37;;;;;;;37.22;23.65;;;0.20;1945.60;;;;;;4842468;29;20042;-77
2021/01/19 01:49:04;;;;;;;34.53;22.83;;;0.20;1945.60;;;;;;4843467;29;20044;-75
2021/01/19 01:51:32;;;;;;;35.15;23.02;;;0.20;1945.60;;;;;;4828940;29;20065;-76
2021/01/19 01:53:59;;;;;;;39.42;23.30;;;0.20;1971.20;;;;;;4825097;29;20151;-77
2021/01/19 01:56:25;;;;;;;36.60;22.25;;;0.20;1971.20;;;;;;4836469;29;20073;-77
2021/01/19 01:58:55;;;;;;;37.38;24.15;;;0.30;1945.60;;;;;;4842645;29;20030;-76
2021/01/19 02:01:23;;;;;;;44.92;24.90;;;0.30;1971.20;;;;;;4843004;29;20044;-76
2021/01/19 02:03:49;;;;;;;35.28;22.95;;;0.30;1971.20;;;;;;4842171;29;20128;-76
2021/01/19 02:06:15;;;;;;;36.47;23.73;;;0.30;1945.60;;;;;;4844434;29;20130;-76
2021/01/19 02:09:17;;;;;;;40.20;25.52;;;0.30;1971.20;;;;;;4826141;29;20054;-76
2021/01/19 02:12:01;;;;;;;33.58;23.00;;;0.30;1971.20;;;;;;4754422;30;20140;-76
2021/01/19 02:14:34;;;;;;;36.38;24.00;;;0.40;1996.80;;;;;;4770013;30;20047;-76
2021/01/19 02:17:23;;;;;;;39.80;25.02;;;0.30;1971.20;;;;;;4769846;30;20043;-76
2021/01/19 02:20:31;;;;;;;40.17;24.38;;;0.40;1971.20;;;;;;4754156;30;20056;-76
2021/01/19 02:23:20;;;;;;;40.42;26.08;;;0.30;1996.80;;;;;;4754460;30;20126;-76
2021/01/19 02:25:51;;;;;;;37.40;25.17;;;0.30;1996.80;;;;;;4754133;30;20063;-76
2021/01/19 02:28:19;;;;;;;43.00;25.73;;;0.30;1996.80;;;;;;4754732;30;20044;-76
2021/01/19 02:31:33;;;;;;;44.95;24.80;;;0.30;1996.80;;;;;;4769300;30;20488;-76
2021/01/19 02:34:33;;;;;;;39.35;24.80;;;0.30;1996.80;;;;;;4761277;30;20050;-76
2021/01/19 02:37:04;;;;;;;48.50;27.92;;;0.30;1996.80;;;;;;4754269;30;20055;-75
2021/01/19 02:39:53;;;;;;;42.15;24.88;;;0.30;1996.80;;;;;;4756292;30;20069;-76
2021/01/19 02:42:23;;;;;;;35.28;22.73;;;0.30;1996.80;;;;;;4755047;30;20051;-76
2021/01/19 02:44:50;;;;;;;33.30;21.95;;;0.30;1996.80;;;;;;4753767;30;20036;-76
2021/01/19 02:47:17;;;;;;;37.00;24.33;;;0.30;1996.80;;;;;;4796856;29;20394;-76
2021/01/19 02:49:43;;;;;;;34.20;22.67;;;0.20;1996.80;;;;;;4823202;29;20031;-76
2021/01/19 02:52:09;;;;;;;39.92;23.48;;;0.30;1996.80;;;;;;4824767;29;20028;-76
2021/01/19 02:54:37;;;;;;;37.75;22.98;;;0.30;1996.80;;;;;;4822583;29;20054;-77
2021/01/19 02:57:25;;;;;;;38.55;22.70;;;0.30;1996.80;;;;;;4822230;29;20456;-76
2021/01/19 03:00:13;;;;;;;33.35;22.90;;;0.30;1996.80;;;;;;4824439;29;20109;-76
2021/01/19 03:02:42;;;;;;;37.58;22.27;;;0.30;1996.80;;;;;;4822839;29;20368;-76
2021/01/19 03:05:10;;;;;;;38.15;21.92;;;0.30;1996.80;;;;;;4823435;29;20097;-76
2021/01/19 03:07:41;;;;;;;34.45;22.75;;;0.50;1996.80;;;;;;4823415;29;20087;-76
2021/01/19 03:10:07;;;;;;;33.63;21.02;;;0.40;1996.80;;;;;;4822702;29;20081;-76
2021/01/19 03:12:34;;;;;;;39.70;24.85;;;0.30;1996.80;;;;;;4824641;29;20037;-76
2021/01/19 03:15:00;;;;;;;31.25;20.63;;;0.40;1996.80;;;;;;4823986;29;20403;-76
2021/01/19 03:17:26;;;;;;;37.97;22.60;;;0.40;1971.20;;;;;;4823215;29;20087;-76
2021/01/19 03:19:51;;;;;;;38.90;21.88;;;0.40;1996.80;;;;;;4824064;29;20026;-76
2021/01/19 03:22:17;;;;;;;38.50;24.15;;;0.40;1996.80;;;;;;4824048;29;20404;-77
2021/01/19 03:24:43;;;;;;;34.75;22.77;;;0.40;1971.20;;;;;;4823236;29;20038;-76
2021/01/19 03:27:09;;;;;;;35.97;22.60;;;0.40;1996.80;;;;;;4823701;29;20067;-77
2021/01/19 03:29:35;;;;;;;34.85;21.58;;;0.30;1971.20;;;;;;4822845;29;20477;-76
2021/01/19 03:32:02;;;;;;;31.38;21.55;;;0.30;1996.80;;;;;;4823510;29;20038;-76
2021/01/19 03:34:28;;;;;;;37.42;21.65;;;0.40;1971.20;;;;;;4824164;29;20026;-76
2021/01/19 03:36:53;;;;;;;40.50;24.65;;;0.40;1971.20;;;;;;4822055;29;20042;-76
2021/01/19 03:39:19;;;;;;;40.40;24.00;;;0.40;1971.20;;;;;;4823003;29;20090;-76
2021/01/19 03:41:45;;;;;;;35.45;22.00;;;0.40;1971.20;;;;;;4822412;29;20694;-76
2021/01/19 03:44:10;;;;;;;39.13;24.65;;;0.50;1945.60;;;;;;4822905;29;20031;-76
2021/01/19 03:46:36;;;;;;;38.85;24.75;;;0.50;1971.20;;;;;;4821807;29;20118;-76
2021/01/19 03:49:03;;;;;;;44.53;24.92;;;0.50;1971.20;;;;;;4823626;29;20027;-76
2021/01/19 03:51:29;;;;;;;39.92;23.67;;;0.50;1945.60;;;;;;4824406;29;20372;-76
2021/01/19 03:53:55;;;;;;;36.70;25.35;;;0.50;1971.20;;;;;;4823590;29;20060;-78
2021/01/19 03:56:20;;;;;;;39.45;24.80;;;0.50;1945.60;;;;;;4823019;29;20177;-76
2021/01/19 03:58:47;;;;;;;38.75;23.45;;;0.50;1945.60;;;;;;4821526;29;20039;-77
2021/01/19 04:01:13;;;;;;;36.22;23.48;;;0.50;1945.60;;;;;;4822755;29;20031;-77
2021/01/19 04:03:39;;;;;;;40.47;23.55;;;0.50;1971.20;;;;;;4823473;29;20394;-76
2021/01/19 04:06:08;;;;;;;39.67;24.10;;;0.60;1945.60;;;;;;4822622;29;20042;-77
2021/01/19 04:08:35;;;;;;;41.60;25.05;;;0.50;1945.60;;;;;;4822294;29;20049;-77
2021/01/19 04:11:01;;;;;;;46.25;28.65;;;0.50;1920.00;;;;;;4824311;29;20125;-77
2021/01/19 04:13:27;;;;;;;42.50;25.27;;;0.50;1920.00;;;;;;4823843;29;20958;-77
2021/01/19 04:15:53;;;;;;;40.25;25.77;;;0.60;1945.60;;;;;;4823806;29;20038;-77
2021/01/19 04:18:20;;;;;;;33.42;21.77;;;0.60;1945.60;;;;;;4823011;29;20399;-76
2021/01/19 04:20:45;;;;;;;36.03;21.45;;;0.60;1945.60;;;;;;4823503;29;20026;-76
2021/01/19 04:23:14;;;;;;;40.78;25.65;;;0.70;1945.60;;;;;;4823977;29;20033;-76
2021/01/19 04:25:44;;;;;;;43.83;27.48;;;0.70;1920.00;;;;;;4823158;29;20031;-76
2021/01/19 04:28:10;;;;;;;36.80;26.08;;;0.70;1920.00;;;;;;4823751;29;20018;-76
2021/01/19 04:30:43;;;;;;;41.35;26.65;;;0.70;1920.00;;;;;;4823040;29;20026;-77
2021/01/19 04:33:11;;;;;;;33.95;23.52;;;0.70;1920.00;;;;;;4823091;29;20034;-77
2021/01/19 04:35:37;;;;;;;37.78;23.15;;;0.70;1920.00;;;;;;4822575;29;20110;-76
2021/01/19 04:38:03;;;;;;;36.95;25.45;;;0.70;1920.00;;;;;;4821793;29;20480;-76
2021/01/19 04:40:29;;;;;;;38.22;24.02;;;0.70;1920.00;;;;;;4823567;29;20164;-76
2021/01/19 04:42:54;;;;;;;38.25;23.25;;;0.70;1920.00;;;;;;4823202;29;20054;-76
2021/01/19 04:45:21;;;;;;;35.85;22.92;;;0.70;1920.00;;;;;;4823709;29;20049;-76
2021/01/19 04:47:50;;;;;;;33.47;20.95;;;0.70;1920.00;;;;;;4823203;29;20023;-76
2021/01/19 04:50:16;;;;;;;36.38;21.85;;;0.70;1894.40;;;;;;4822293;29;20547;-77
2021/01/19 04:52:44;;;;;;;40.65;25.13;;;0.60;1945.60;;;;;;4821802;29;20121;-76
2021/01/19 04:55:19;;;;;;;38.80;24.60;;;0.70;1920.00;;;;;;4821564;29;20114;-77
2021/01/19 04:57:57;;;;;;;41.22;27.23;;;0.70;1945.60;;;;;;4822276;29;20039;-77
2021/01/19 05:00:30;;;;;;;45.60;27.88;;;0.60;1945.60;;;;;;4822960;29;20045;-77
2021/01/19 05:03:02;;;;;;;47.92;28.27;;;0.60;1945.60;;;;;;4822209;29;20040;-77
2021/01/19 05:05:37;;;;;;;44.55;28.75;;;0.70;1971.20;;;;;;4822151;29;20137;-77
2021/01/19 05:08:02;;;;;;;44.85;26.35;;;0.60;1971.20;;;;;;4821762;29;20046;-76
2021/01/19 05:10:36;;;;;;;43.25;26.50;;;0.60;1945.60;;;;;;4823671;29;20030;-77
2021/01/19 05:13:12;;;;;;;49.00;26.13;;;0.60;1945.60;;;;;;4825304;29;20030;-76
2021/01/19 05:15:48;;;;;;;39.47;25.08;;;0.60;1945.60;;;;;;4826323;29;20518;-77
2021/01/19 05:18:16;;;;;;;43.88;25.55;;;0.60;1945.60;;;;;;4825694;29;20030;-77
2021/01/19 05:20:49;;;;;;;41.22;25.17;;;0.60;1945.60;;;;;;4826383;29;20034;-78
2021/01/19 05:23:23;;;;;;;39.83;23.70;;;0.60;1945.60;;;;;;4826965;29;20490;-77
2021/01/19 05:25:55;;;;;;;42.17;25.48;;;0.60;1971.20;;;;;;4826262;29;20379;-77
2021/01/19 05:28:37;;;;;;;37.55;23.42;;;0.60;1945.60;;;;;;4824360;29;20070;-77
2021/01/19 05:31:14;;;;;;;39.17;25.13;;;0.50;1971.20;;;;;;4826785;29;20448;-76
2021/01/19 05:34:04;;;;;;;37.75;23.40;;;0.50;1996.80;;;;;;4824967;29;20042;-77
2021/01/19 05:36:42;;;;;;;32.78;21.77;;;0.50;1996.80;;;;;;4839786;29;20049;-76
2021/01/19 05:39:13;;;;;;;34.58;21.20;;;0.50;1996.80;;;;;;4825470;29;20083;-76
2021/01/19 05:41:47;;;;;;;37.90;23.10;;;0.40;1996.80;;;;;;4824776;29;20030;-77
2021/01/19 05:44:12;;;;;;;36.70;23.98;;;0.40;1996.80;;;;;;4824578;29;20073;-77
2021/01/19 05:47:05;;;;;;;36.17;24.10;;;0.40;1996.80;;;;;;4824899;29;20062;-77
2021/01/19 05:49:36;;;;;;;39.58;27.15;;;0.40;2022.40;;;;;;4751631;30;20036;-76
2021/01/19 05:52:09;;;;;;;36.60;25.38;;;0.40;1996.80;;;;;;4751125;30;20076;-77
2021/01/19 05:54:38;;;;;;;42.53;28.75;;;0.40;2022.40;;;;;;4751784;30;20040;-77
2021/01/19 05:57:04;;;;;;;51.40;31.05;;;0.40;2048.00;;;;;;4752254;30;20512;-76
2021/01/19 05:59:38;;;;;;;47.30;28.70;;;0.40;2048.00;;;;;;4752368;30;20106;-77
2021/01/19 06:02:13;;;;;;;42.40;27.00;;;0.40;2048.00;;;;;;4751859;30;20028;-78
2021/01/19 06:04:53;;;;;;;36.35;24.67;;;0.40;2048.00;;;;;;4736876;30;20176;-78
2021/01/19 06:07:20;;;;;;;45.47;29.75;;;0.40;2048.00;;;;;;4752411;30;20128;-77
2021/01/19 06:09:46;;;;;;;43.63;26.77;;;0.40;2073.60;;;;;;4751893;30;20032;-76
2021/01/19 06:12:13;;;;;;;45.55;28.92;;;0.40;2073.60;;;;;;4737466;30;20112;-76
2021/01/19 06:14:39;;;;;;;41.35;27.85;;;0.50;2048.00;;;;;;4737166;30;20047;-77
2021/01/19 06:17:09;;;;;;;43.10;27.05;;;0.40;2073.60;;;;;;4737111;30;20064;-77
2021/01/19 06:19:35;;;;;;;57.88;36.63;;;0.40;2073.60;;;;;;4752505;30;20051;-77
2021/01/19 06:22:07;;;;;;;45.15;29.02;;;0.40;2073.60;;;;;;4751191;30;20152;-77
2021/01/19 06:24:34;;;;;;;40.72;25.80;;;0.40;2048.00;;;;;;4752533;30;20063;-77
2021/01/19 06:27:00;;;;;;;42.45;29.05;;;0.40;2073.60;;;;;;4815273;29;20398;-77
2021/01/19 06:29:27;;;;;;;47.42;29.73;;;0.50;2073.60;;;;;;4826104;29;20026;-77
2021/01/19 06:31:56;;;;;;;55.83;32.75;;;0.40;2073.60;;;;;;4825553;29;20026;-77
2021/01/19 06:34:38;;;;;;;53.42;32.20;;;0.40;2073.60;;;;;;4825575;29;20079;-77
2021/01/19 06:37:05;;;;;;;54.80;31.48;;;0.40;2073.60;;;;;;4826007;29;20039;-77
2021/01/19 06:39:37;;;;;;;46.13;26.50;;;0.40;2073.60;;;;;;4825613;29;20075;-77
2021/01/19 06:42:11;;;;;;;49.50;29.55;;;0.50;2048.00;;;;;;4824402;29;20049;-77
2021/01/19 06:44:46;;;;;;;39.45;27.92;;;0.50;2073.60;;;;;;4824376;29;20060;-78
2021/01/19 06:47:14;;;;;;;44.80;29.13;;;0.50;2099.20;;;;;;4825466;29;20038;-77
2021/01/19 06:49:40;;;;;;;43.22;30.38;;;0.50;2099.20;;;;;;4824996;29;20082;-77
2021/01/19 06:52:16;;;;;;;54.80;36.05;;;0.50;2099.20;;;;;;4824188;29;20061;-78
2021/01/19 06:54:54;;;;;;;47.05;29.42;;;0.60;2124.80;;;;;;4825023;29;20031;-78
2021/01/19 06:57:53;;;;;;;37.75;26.13;;;0.60;2124.80;;;;;;4824694;29;20087;-78
2021/01/19 07:00:23;;;;;;;42.55;26.63;;;0.60;2124.80;;;;;;4825239;29;20031;-78
2021/01/19 07:02:50;;;;;;;39.28;27.42;;;0.60;2124.80;;;;;;4824093;29;20030;-77
2021/01/19 07:05:23;;;;;;;42.47;27.45;;;0.60;2099.20;;;;;;4824614;29;20099;-77
2021/01/19 07:08:12;;;;;;;45.97;30.25;;;0.70;2099.20;;;;;;4823888;29;20042;-78
2021/01/19 07:11:17;;;;;;;43.92;28.98;;;0.80;2099.20;;;;;;4824031;29;20034;-78
2021/01/19 07:13:49;;;;;;;40.03;26.92;;;0.90;2099.20;;;;;;4824431;29;20067;-78
2021/01/19 07:16:22;;;;;;;49.80;32.15;;;25.60;2048.00;;;;;;4826173;29;20444;-78
2021/01/19 07:18:51;;;;;;;47.42;30.77;;;25.70;2048.00;;;;;;4825389;29;20136;-77
2021/01/19 07:21:18;;;;;;;51.35;33.70;;;25.80;2022.40;;;;;;4824318;29;20098;-77
2021/01/19 07:23:47;;;;;;;59.83;39.00;;;25.90;2048.00;;;;;;4824967;29;20037;-77
2021/01/19 07:26:19;;;;;;;56.15;36.35;;;26.00;2022.40;;;;;;4825508;29;20440;-77
2021/01/19 07:28:46;;;;;;;59.20;38.95;;;26.10;1996.80;;;;;;4824038;29;20065;-77
2021/01/19 07:31:13;;;;;;;54.42;37.85;;;26.10;1996.80;;;;;;4825158;29;20035;-77
2021/01/19 07:33:43;;;;;;;62.78;41.58;;;26.10;1971.20;;;;;;4825714;29;20030;-77
2021/01/19 07:36:20;;;;;;;65.85;42.67;;;26.10;2022.40;;;;;;4824083;29;20419;-77
2021/01/19 07:38:46;;;;;;;65.20;39.55;;;26.10;1971.20;;;;;;4825063;29;20487;-77
2021/01/19 07:41:25;;;;;;;70.93;41.28;;;26.20;1971.20;;;;;;4825786;29;20038;-77
2021/01/19 07:43:51;;;;;;;68.15;40.05;;;26.20;1996.80;;;;;;4824268;29;20384;-78
2021/01/19 07:46:22;;;;;;;55.05;35.47;;;26.10;2022.40;;;;;;4822422;29;20045;-78
2021/01/19 07:49:02;;;;;;;66.85;40.90;;;26.10;2022.40;;;;;;4823533;29;20038;-77
2021/01/19 07:51:43;;;;;;;65.80;41.20;;;26.00;2073.60;;;;;;4821733;29;20065;-78
2021/01/19 07:54:14;;;;;;;56.75;35.65;;;26.10;2099.20;;;;;;4823411;29;20031;-78
2021/01/19 07:56:40;;;;;;;54.95;35.72;;;26.00;2099.20;;;;;;4824268;29;20483;-78
2021/01/19 07:59:17;;;;;;;55.40;36.60;;;26.00;2099.20;;;;;;4824513;29;20501;-78
2021/01/19 08:01:56;;;;;;;57.47;37.28;;;26.00;2124.80;;;;;;4822789;29;20062;-79
2021/01/19 08:04:31;;;;;;;60.63;37.95;;;26.10;2099.20;;;;;;4823326;29;20046;-78
2021/01/19 08:07:08;;;;;;;49.50;30.63;;;26.20;2124.80;;;;;;4822842;29;20054;-79
2021/01/19 08:09:35;;;;;;;44.58;30.75;;;26.30;2124.80;;;;;;4823274;29;20034;-79
2021/01/19 08:12:14;;;;;;;41.97;28.50;;;26.30;2124.80;;;;;;4822163;29;20062;-78
2021/01/19 08:14:43;;;;;;;44.45;29.73;;;26.30;2124.80;;;;;;4822620;29;20026;-79
2021/01/19 08:17:09;;;;;;;56.67;34.40;;;26.40;2099.20;;;;;;4822371;29;20425;-79
2021/01/19 08:19:46;;;;;;;58.70;38.28;;;26.40;2124.80;;;;;;4836761;29;20390;-79
2021/01/19 08:22:12;;;;;;;;;;;26.30;2150.40;;;;;;4840721;29;20046;-80
2021/01/19 08:24:41;;;;;;;44.80;32.33;;;26.20;2150.40;;;;;;4841615;29;20353;-79
2021/01/19 08:27:07;;;;;;;50.40;29.73;;;26.10;2150.40;;;;;;4841075;29;20410;-80
2021/01/19 08:29:33;;;;;;;52.50;32.67;;;26.10;2176.00;;;;;;4840360;29;20117;-79
2021/01/19 08:32:01;;;;;;;55.15;35.42;;;26.30;2176.00;;;;;;4830859;29;20135;-79
2021/01/19 08:34:29;;;;;;;54.90;37.47;;;26.30;2176.00;;;;;;4822696;29;20042;-78
2021/01/19 08:36:56;;;;;;;53.55;33.50;;;26.30;2201.60;;;;;;4823639;29;20110;-77
2021/01/19 08:39:23;;;;;;;53.95;34.20;;;51.20;2176.00;;;;;;4823392;29;20487;-79
2021/01/19 08:41:51;;;;;;;51.05;33.53;;;51.40;2150.40;;;;;;4822696;29;20061;-78
2021/01/19 08:44:17;;;;;;;52.25;34.00;;;51.60;2124.80;;;;;;4823129;29;20057;-78
2021/01/19 08:46:44;;;;;;;42.22;28.88;;;51.60;2124.80;;;;;;4819946;29;20129;-77
2021/01/19 08:49:18;;;;;;;48.35;32.33;;;51.60;2099.20;;;;;;4835108;29;20087;-78
2021/01/19 08:51:48;;;;;;;51.05;33.95;;;51.60;2124.80;;;;;;4841414;29;20065;-78
2021/01/19 08:54:15;;;;;;;46.33;32.88;;;51.90;2073.60;;;;;;4841832;29;20037;-80
2021/01/19 08:56:45;;;;;;;46.40;34.08;;;76.80;2048.00;;;;;;4841400;29;20057;-78
2021/01/19 08:59:15;;;;;;;49.00;33.28;;;77.10;2022.40;;;;;;4840845;29;20030;-78
2021/01/19 09:01:48;;;;;;;46.90;32.72;;;77.20;1996.80;;;;;;4840809;29;20038;-78
2021/01/19 09:04:23;;;;;;;51.72;35.08;;;77.40;1971.20;;;;;;4841283;29;20038;-78
2021/01/19 09:06:50;;;;;;;49.88;34.13;;;77.60;1945.60;;;;;;4842090;29;20058;-78
2021/01/19 09:09:23;;;;;;;57.55;39.08;;;77.60;1971.20;;;;;;4841046;29;20447;-79
2021/01/19 09:11:51;;;;;;;58.10;38.90;;;102.40;1945.60;;;;;;4840598;29;20040;-79
2021/01/19 09:14:23;;;;;;;57.88;39.03;;;102.40;1945.60;;;;;;4840941;29;20055;-79
2021/01/19 09:16:49;;;;;;;98.38;67.40;;;102.50;1920.00;;;;;;4841914;29;20058;-79
2021/01/19 09:19:15;;;;;;;73.30;50.17;;;102.50;1920.00;;;;;;4840868;29;20034;-78
2021/01/19 09:21:40;;;;;;;64.93;46.10;;;102.70;1920.00;;;;;;4839309;29;20041;-79
2021/01/19 09:24:17;;;;;;;75.75;49.17;;;102.60;1920.00;;;;;;4840340;29;20506;-79
2021/01/19 09:26:56;;;;;;;74.38;51.67;;;102.70;1920.00;;;;;;4840297;29;20065;-80
2021/01/19 09:29:33;;;;;;;74.97;48.25;;;102.80;1894.40;;;;;;4844758;29;20079;-83
2021/01/19 09:32:00;;;;;;;68.88;44.72;;;102.90;1868.80;;;;;;4848648;29;20405;-83
2021/01/19 09:34:27;;;;;;;58.85;38.50;;;102.90;1817.60;;;;;;4844709;29;20030;-83
2021/01/19 09:36:54;;;;;;;54.65;37.10;;;102.70;1868.80;;;;;;4845770;29;20093;-82
2021/01/19 09:39:31;;;;;;;58.45;41.22;;;102.80;1843.20;;;;;;4847791;29;20125;-83
2021/01/19 09:42:00;;;;;;;68.72;47.05;;;103.10;1843.20;;;;;;4847528;29;20030;-84
2021/01/19 09:44:30;;;;;;;68.07;43.50;;;103.20;1817.60;;;;;;4849028;29;20033;-83
2021/01/19 09:47:04;;;;;;;72.85;49.65;;;103.20;1792.00;;;;;;4845864;29;20058;-84
2021/01/19 09:49:30;;;;;;;58.55;41.08;;;103.10;1843.20;;;;;;4847432;29;20394;-83
2021/01/19 09:52:07;;;;;;;68.45;49.33;;;103.10;1817.60;;;;;;4847039;29;20029;-85
2021/01/19 09:54:33;;;;;;;68.30;47.60;;;103.20;1817.60;;;;;;4855586;29;20036;-84
2021/01/19 09:56:59;;;;;;;59.67;43.25;;;103.00;1843.20;;;;;;4849622;29;20050;-85
2021/01/19 09:59:30;;;;;;;57.92;40.50;;;103.00;1817.60;;;;;;4842330;29;20035;-84
2021/01/19 10:01:59;;;;;;;63.17;44.63;;;103.20;1843.20;;;;;;4855106;29;20029;-84
2021/01/19 10:04:26;;;;;;;61.13;41.67;;;103.20;1817.60;;;;;;4850032;29;20125;-82
2021/01/19 10:07:06;;;;;;;65.93;44.13;;;103.30;1817.60;;;;;;4851202;29;20057;-83
2021/01/19 10:09:33;;;;;;;81.38;52.05;;;103.30;1792.00;;;;;;4848233;29;20074;-80
2021/01/19 10:12:07;;;;;;;78.47;51.03;;;128.00;1843.20;;;;;;4844317;29;20109;-80
2021/01/19 10:14:38;;;;;;;72.65;48.80;;;128.10;1817.60;;;;;;4830588;29;20034;-84
2021/01/19 10:17:04;;;;;;;76.63;52.08;;;128.20;1817.60;;;;;;4838546;29;20037;-83
2021/01/19 10:19:33;;;;;;;72.88;50.47;;;128.40;1792.00;;;;;;4839612;29;20475;-79
2021/01/19 10:22:07;;;;;;;75.07;50.90;;;128.60;1766.40;;;;;;4837499;29;20056;-86
2021/01/19 10:24:34;;;;;;;68.22;48.67;;;128.80;1740.80;;;;;;4850358;29;20034;-84
2021/01/19 10:27:01;;;;;;;74.28;51.45;;;128.80;1715.20;;;;;;4844455;29;20037;-80
2021/01/19 10:29:41;;;;;;;77.82;52.35;;;128.70;1689.60;;;;;;4842528;29;20121;-79
2021/01/19 10:32:14;;;;;;;88.72;60.17;;;153.60;1715.20;;;;;;4843259;29;20041;-79
2021/01/19 10:34:47;;;;;;;75.65;52.42;;;153.70;1689.60;;;;;;4844863;29;20034;-80
2021/01/19 10:37:14;;;;;;;68.95;47.58;;;154.00;1664.00;;;;;;4835075;29;20899;-79
2021/01/19 10:39:53;;;;;;;72.93;47.80;;;154.10;1638.40;;;;;;4825627;29;20042;-80
2021/01/19 10:42:27;;;;;;;68.13;49.25;;;154.40;1612.80;;;;;;4830879;29;20035;-81
2021/01/19 10:45:01;;;;;;;85.80;55.53;;;179.30;1587.20;;;;;;4832574;29;20071;-83
2021/01/19 10:47:37;;;;;;;87.13;59.47;;;179.40;1587.20;;;;;;4829655;29;20067;-81
2021/01/19 10:50:14;;;;;;;69.20;51.65;;;179.60;1587.20;;;;;;4832382;29;20038;-81
2021/01/19 10:52:41;;;;;;;65.85;45.97;;;179.70;1561.60;;;;;;4845258;29;20101;-80
2021/01/19 10:55:08;;;;;;;62.55;46.70;;;180.00;1510.40;;;;;;4844339;29;20041;-81
2021/01/19 10:57:34;;;;;;;71.72;51.00;;;180.00;1484.80;;;;;;4843068;29;20038;-80
2021/01/19 11:00:02;;;;;;;69.68;50.70;;;204.90;1459.20;;;;;;4843613;29;20082;-79
2021/01/19 11:02:28;;;;;;;63.45;47.28;;;205.30;1433.60;;;;;;4844096;29;20493;-77
2021/01/19 11:04:53;;;;;;;78.75;54.38;;;205.50;1408.00;;;;;;4842462;29;20069;-77
2021/01/19 11:07:19;;;;;;;58.50;45.83;;;205.60;1382.40;;;;;;4844436;29;20121;-78
2021/01/19 11:09:44;;;;;;;57.95;42.03;;;230.40;1382.40;;;;;;4844720;29;20029;-77
2021/01/19 11:12:10;;;;;;;98.63;62.05;;;230.60;1331.20;;;;;;4843449;29;20486;-77
2021/01/19 11:14:36;;;;;;;105.82;65.50;;;230.70;1331.20;;;;;;4843594;29;20367;-77
2021/01/19 11:17:03;;;;;;;83.07;54.47;;;230.90;1305.60;;;;;;4844911;29;20026;-79
2021/01/19 11:19:28;;;;;;;74.07;49.72;;;230.90;1280.00;;;;;;4843245;29;20426;-78
2021/01/19 11:21:57;;;;;;;66.70;47.90;;;230.50;1305.60;;;;;;4843686;29;20135;-78
2021/01/19 11:24:24;;;;;;;68.90;48.88;;;230.90;1280.00;;;;;;4844022;29;20037;-78
2021/01/19 11:26:50;;;;;;;60.70;44.42;;;231.00;1280.00;;;;;;4842581;29;20065;-80
2021/01/19 11:29:16;;;;;;;61.92;45.58;;;230.60;1305.60;;;;;;4844744;29;20026;-79
2021/01/19 11:31:41;;;;;;;55.40;40.58;;;230.80;1280.00;;;;;;4844806;29;20385;-79
2021/01/19 11:34:09;;;;;;;62.00;43.72;;;230.80;1254.40;;;;;;4843883;29;20058;-80
2021/01/19 11:36:39;;;;;;;73.57;48.60;;;230.70;1280.00;;;;;;4842928;29;20042;-77
2021/01/19 11:39:08;;;;;;;60.88;46.33;;;230.90;1254.40;;;;;;4836797;29;20089;-79
2021/01/19 11:41:38;;;;;;;65.57;47.88;;;231.00;1228.80;;;;;;4843774;29;20037;-79
2021/01/19 11:44:05;;;;;;;62.20;42.88;;;256.00;1228.80;;;;;;4824461;29;20034;-79
2021/01/19 11:46:32;;;;;;;59.83;42.70;;;256.10;1203.20;;;;;;4839607;29;20042;-80
2021/01/19 11:49:01;;;;;;;58.38;41.25;;;231.10;1228.80;;;;;;4826370;29;20033;-79
2021/01/19 11:51:29;;;;;;;53.22;39.20;;;231.20;1228.80;;;;;;4828285;29;20034;-78
2021/01/19 11:53:58;;;;;;;56.92;41.05;;;256.10;1203.20;;;;;;4844229;29;20029;-78
2021/01/19 11:56:38;;;;;;;52.55;37.17;;;256.30;1177.60;;;;;;4842828;29;20885;-79
2021/01/19 11:59:05;;;;;;;52.50;37.97;;;256.20;1177.60;;;;;;4843987;29;20037;-78
2021/01/19 12:01:30;;;;;;;55.17;38.65;;;256.30;1177.60;;;;;;4842939;29;20120;-78
2021/01/19 12:03:57;;;;;;;54.58;38.70;;;256.30;1177.60;;;;;;4843971;29;20427;-78
2021/01/19 12:06:22;;;;;;;56.97;41.08;;;256.50;1177.60;;;;;;4842079;29;20092;-78
2021/01/19 12:08:49;;;;;;;56.05;40.50;;;256.20;1203.20;;;;;;4843067;29;20069;-76
2021/01/19 12:11:16;;;;;;;52.22;36.70;;;256.30;1228.80;;;;;;4843472;29;20038;-76
2021/01/19 12:13:42;;;;;;;53.30;37.15;;;256.30;1203.20;;;;;;4842571;29;20026;-77
2021/01/19 12:16:09;;;;;;;53.78;37.22;;;256.20;1203.20;;;;;;4840143;29;20073;-77
2021/01/19 12:18:36;;;;;;;58.33;41.65;;;256.50;1203.20;;;;;;4842264;29;20038;-77
2021/01/19 12:21:03;;;;;;;62.38;44.35;;;231.20;1228.80;;;;;;4840264;29;20030;-77
2021/01/19 12:23:29;;;;;;;71.47;48.75;;;231.20;1254.40;;;;;;4841666;29;20030;-77
2021/01/19 12:25:58;;;;;;;47.47;33.90;;;256.00;1228.80;;;;;;4839961;29;20494;-79